sensor_id;sensor_type;location;lat;lon;timestamp;temperature;humidity
22623;DHT22;11478;51.094;7.030;2023-12-20T00:02:06;7.30;99.90
22623;DHT22;11478;51.094;7.030;2023-12-20T00:04:32;7.30;99.90
22623;DHT22;11478;51.094;7.030;2023-12-20T00:06:59;7.30;99.90
22623;DHT22;11478;51.094;7.030;2023-12-20T00:09:27;7.30;99.90
22623;DHT22;11478;51.094;7.030;2023-12-20T00:11:53;7.40;99.90
22623;DHT22;11478;51.094;7.030;2023-12-20T00:14:43;7.40;99.90
22623;DHT22;11478;51.094;7.030;2023-12-20T00:17:08;7.40;99.90
22623;DHT22;11478;51.094;7.030;2023-12-20T00:19:36;7.40;99.90
22623;DHT22;11478;51.094;7.030;2023-12-20T00:22:01;7.40;99.90
22623;DHT22;11478;51.094;7.030;2023-12-20T00:24:34;7.40;99.90
22623;DHT22;11478;51.094;7.030;2023-12-20T00:27:00;7.40;99.90
22623;DHT22;11478;51.094;7.030;2023-12-20T00:29:26;7.40;99.90
22623;DHT22;11478;51.094;7.030;2023-12-20T00:31:52;7.30;99.90
22623;DHT22;11478;51.094;7.030;2023-12-20T00:34:17;7.30;99.90
22623;DHT22;11478;51.094;7.030;2023-12-20T00:36:43;7.20;99.90
22623;DHT22;11478;51.094;7.030;2023-12-20T00:39:09;7.20;99.90
22623;DHT22;11478;51.094;7.030;2023-12-20T00:41:35;7.10;99.90
22623;DHT22;11478;51.094;7.030;2023-12-20T00:44:01;7.10;99.90
22623;DHT22;11478;51.094;7.030;2023-12-20T00:46:30;7.10;99.90
22623;DHT22;11478;51.094;7.030;2023-12-20T00:48:56;7.00;99.90
22623;DHT22;11478;51.094;7.030;2023-12-20T00:51:28;7.00;99.90
22623;DHT22;11478;51.094;7.030;2023-12-20T00:53:54;7.00;99.90
22623;DHT22;11478;51.094;7.030;2023-12-20T00:56:26;6.90;99.90
22623;DHT22;11478;51.094;7.030;2023-12-20T00:58:52;6.90;99.90
22623;DHT22;11478;51.094;7.030;2023-12-20T01:01:20;6.90;99.90
22623;DHT22;11478;51.094;7.030;2023-12-20T01:03:47;6.90;99.90
22623;DHT22;11478;51.094;7.030;2023-12-20T01:06:13;6.80;99.90
22623;DHT22;11478;51.094;7.030;2023-12-20T01:08:39;6.80;99.90
22623;DHT22;11478;51.094;7.030;2023-12-20T01:11:09;6.70;99.90
22623;DHT22;11478;51.094;7.030;2023-12-20T01:13:35;6.70;99.90
22623;DHT22;11478;51.094;7.030;2023-12-20T01:16:01;6.60;99.90
22623;DHT22;11478;51.094;7.030;2023-12-20T01:18:27;6.40;99.90
22623;DHT22;11478;51.094;7.030;2023-12-20T01:20:53;6.40;99.90
22623;DHT22;11478;51.094;7.030;2023-12-20T01:23:19;6.30;99.90
22623;DHT22;11478;51.094;7.030;2023-12-20T01:25:45;6.20;99.90
22623;DHT22;11478;51.094;7.030;2023-12-20T01:28:11;6.20;99.90
22623;DHT22;11478;51.094;7.030;2023-12-20T01:30:37;6.10;99.90
22623;DHT22;11478;51.094;7.030;2023-12-20T01:33:06;6.10;99.90
22623;DHT22;11478;51.094;7.030;2023-12-20T01:35:32;6.10;99.90
22623;DHT22;11478;51.094;7.030;2023-12-20T01:37:58;6.10;99.90
22623;DHT22;11478;51.094;7.030;2023-12-20T01:40:24;6.20;99.90
22623;DHT22;11478;51.094;7.030;2023-12-20T01:43:02;6.20;99.90
22623;DHT22;11478;51.094;7.030;2023-12-20T01:45:28;6.20;99.90
22623;DHT22;11478;51.094;7.030;2023-12-20T01:47:58;6.20;99.90
22623;DHT22;11478;51.094;7.030;2023-12-20T01:50:24;6.20;99.90
22623;DHT22;11478;51.094;7.030;2023-12-20T01:52:51;6.20;99.90
22623;DHT22;11478;51.094;7.030;2023-12-20T01:55:19;6.20;99.90
22623;DHT22;11478;51.094;7.030;2023-12-20T01:57:46;6.20;99.90
22623;DHT22;11478;51.094;7.030;2023-12-20T02:00:13;6.30;99.90
22623;DHT22;11478;51.094;7.030;2023-12-20T02:02:41;6.30;99.90
22623;DHT22;11478;51.094;7.030;2023-12-20T02:05:09;6.30;99.90
22623;DHT22;11478;51.094;7.030;2023-12-20T02:07:38;6.30;99.90
22623;DHT22;11478;51.094;7.030;2023-12-20T02:10:04;6.40;99.90
22623;DHT22;11478;51.094;7.030;2023-12-20T02:12:30;6.40;99.90
22623;DHT22;11478;51.094;7.030;2023-12-20T02:14:57;6.40;99.90
22623;DHT22;11478;51.094;7.030;2023-12-20T02:17:23;6.40;99.90
22623;DHT22;11478;51.094;7.030;2023-12-20T02:19:50;6.40;99.90
22623;DHT22;11478;51.094;7.030;2023-12-20T02:22:16;6.40;99.90
22623;DHT22;11478;51.094;7.030;2023-12-20T02:24:42;6.40;99.90
22623;DHT22;11478;51.094;7.030;2023-12-20T02:27:08;6.30;99.90
22623;DHT22;11478;51.094;7.030;2023-12-20T02:29:53;6.20;99.90
22623;DHT22;11478;51.094;7.030;2023-12-20T02:32:19;6.20;99.90
22623;DHT22;11478;51.094;7.030;2023-12-20T02:34:49;6.10;99.90
22623;DHT22;11478;51.094;7.030;2023-12-20T02:37:15;6.00;99.90
22623;DHT22;11478;51.094;7.030;2023-12-20T02:39:42;5.90;99.90
22623;DHT22;11478;51.094;7.030;2023-12-20T02:42:08;5.80;99.90
22623;DHT22;11478;51.094;7.030;2023-12-20T02:44:34;5.80;99.90
22623;DHT22;11478;51.094;7.030;2023-12-20T02:46:59;5.70;99.90
22623;DHT22;11478;51.094;7.030;2023-12-20T02:49:31;5.70;99.90
22623;DHT22;11478;51.094;7.030;2023-12-20T02:51:57;5.70;99.90
22623;DHT22;11478;51.094;7.030;2023-12-20T02:54:25;5.60;99.90
22623;DHT22;11478;51.094;7.030;2023-12-20T02:56:51;5.60;99.90
22623;DHT22;11478;51.094;7.030;2023-12-20T02:59:17;5.60;99.90
22623;DHT22;11478;51.094;7.030;2023-12-20T03:01:58;5.50;99.90
22623;DHT22;11478;51.094;7.030;2023-12-20T03:04:29;5.50;99.90
22623;DHT22;11478;51.094;7.030;2023-12-20T03:06:55;5.60;99.90
22623;DHT22;11478;51.094;7.030;2023-12-20T03:09:21;5.60;99.90
22623;DHT22;11478;51.094;7.030;2023-12-20T03:11:47;5.60;99.90
22623;DHT22;11478;51.094;7.030;2023-12-20T03:14:12;5.60;99.90
22623;DHT22;11478;51.094;7.030;2023-12-20T03:16:38;5.70;99.90
22623;DHT22;11478;51.094;7.030;2023-12-20T03:19:12;5.70;99.90
22623;DHT22;11478;51.094;7.030;2023-12-20T03:21:38;5.70;99.90
22623;DHT22;11478;51.094;7.030;2023-12-20T03:24:05;5.70;99.90
22623;DHT22;11478;51.094;7.030;2023-12-20T03:26:31;5.70;99.90
22623;DHT22;11478;51.094;7.030;2023-12-20T03:29:00;5.70;99.90
22623;DHT22;11478;51.094;7.030;2023-12-20T03:31:26;5.70;99.90
22623;DHT22;11478;51.094;7.030;2023-12-20T03:33:52;5.70;99.90
22623;DHT22;11478;51.094;7.030;2023-12-20T03:36:19;5.70;99.90
22623;DHT22;11478;51.094;7.030;2023-12-20T03:38:49;5.70;99.90
22623;DHT22;11478;51.094;7.030;2023-12-20T03:41:15;5.80;99.90
22623;DHT22;11478;51.094;7.030;2023-12-20T03:43:42;5.80;99.90
22623;DHT22;11478;51.094;7.030;2023-12-20T03:46:08;5.80;99.90
22623;DHT22;11478;51.094;7.030;2023-12-20T03:48:35;5.80;99.90
22623;DHT22;11478;51.094;7.030;2023-12-20T03:51:01;5.80;99.90
22623;DHT22;11478;51.094;7.030;2023-12-20T03:53:27;5.80;99.90
22623;DHT22;11478;51.094;7.030;2023-12-20T03:55:53;5.70;99.90
22623;DHT22;11478;51.094;7.030;2023-12-20T03:58:19;5.70;99.90
22623;DHT22;11478;51.094;7.030;2023-12-20T04:00:45;5.70;99.90
22623;DHT22;11478;51.094;7.030;2023-12-20T04:03:11;5.70;99.90
22623;DHT22;11478;51.094;7.030;2023-12-20T04:05:40;5.70;99.90
22623;DHT22;11478;51.094;7.030;2023-12-20T04:08:07;5.70;99.90
22623;DHT22;11478;51.094;7.030;2023-12-20T04:10:33;5.70;99.90
22623;DHT22;11478;51.094;7.030;2023-12-20T04:12:58;5.60;99.90
22623;DHT22;11478;51.094;7.030;2023-12-20T04:15:24;5.60;99.90
22623;DHT22;11478;51.094;7.030;2023-12-20T04:17:51;5.60;99.90
22623;DHT22;11478;51.094;7.030;2023-12-20T04:20:17;5.60;99.90
22623;DHT22;11478;51.094;7.030;2023-12-20T04:22:43;5.60;99.90
22623;DHT22;11478;51.094;7.030;2023-12-20T04:25:09;5.60;99.90
22623;DHT22;11478;51.094;7.030;2023-12-20T04:27:35;5.60;99.90
22623;DHT22;11478;51.094;7.030;2023-12-20T04:30:01;5.60;99.90
22623;DHT22;11478;51.094;7.030;2023-12-20T04:32:27;5.70;99.90
22623;DHT22;11478;51.094;7.030;2023-12-20T04:34:52;5.70;99.90
22623;DHT22;11478;51.094;7.030;2023-12-20T04:37:18;5.60;99.90
22623;DHT22;11478;51.094;7.030;2023-12-20T04:39:44;5.60;99.90
22623;DHT22;11478;51.094;7.030;2023-12-20T04:42:12;5.60;99.90
22623;DHT22;11478;51.094;7.030;2023-12-20T04:44:38;5.60;99.90
22623;DHT22;11478;51.094;7.030;2023-12-20T04:47:04;5.60;99.90
22623;DHT22;11478;51.094;7.030;2023-12-20T04:49:30;5.60;99.90
22623;DHT22;11478;51.094;7.030;2023-12-20T04:51:59;5.50;99.90
22623;DHT22;11478;51.094;7.030;2023-12-20T04:54:24;5.60;99.90
22623;DHT22;11478;51.094;7.030;2023-12-20T04:56:50;5.50;99.90
22623;DHT22;11478;51.094;7.030;2023-12-20T04:59:16;5.60;99.90
22623;DHT22;11478;51.094;7.030;2023-12-20T05:01:45;5.50;99.90
22623;DHT22;11478;51.094;7.030;2023-12-20T05:04:11;5.60;99.90
22623;DHT22;11478;51.094;7.030;2023-12-20T05:06:38;5.60;99.90
22623;DHT22;11478;51.094;7.030;2023-12-20T05:09:04;5.60;99.90
22623;DHT22;11478;51.094;7.030;2023-12-20T05:11:30;5.60;99.90
22623;DHT22;11478;51.094;7.030;2023-12-20T05:13:56;5.60;99.90
22623;DHT22;11478;51.094;7.030;2023-12-20T05:16:22;5.60;99.90
22623;DHT22;11478;51.094;7.030;2023-12-20T05:18:48;5.60;99.90
22623;DHT22;11478;51.094;7.030;2023-12-20T05:21:15;5.60;99.90
22623;DHT22;11478;51.094;7.030;2023-12-20T05:23:42;5.70;99.90
22623;DHT22;11478;51.094;7.030;2023-12-20T05:26:07;5.70;99.90
22623;DHT22;11478;51.094;7.030;2023-12-20T05:28:35;5.70;99.90
22623;DHT22;11478;51.094;7.030;2023-12-20T05:31:01;5.70;99.90
22623;DHT22;11478;51.094;7.030;2023-12-20T05:33:28;5.70;99.90
22623;DHT22;11478;51.094;7.030;2023-12-20T05:35:54;5.70;99.90
22623;DHT22;11478;51.094;7.030;2023-12-20T05:38:20;5.70;99.90
22623;DHT22;11478;51.094;7.030;2023-12-20T05:40:46;5.70;99.90
22623;DHT22;11478;51.094;7.030;2023-12-20T05:43:18;5.70;99.90
22623;DHT22;11478;51.094;7.030;2023-12-20T05:45:44;5.70;99.90
22623;DHT22;11478;51.094;7.030;2023-12-20T05:48:13;5.70;99.90
22623;DHT22;11478;51.094;7.030;2023-12-20T05:50:39;5.60;99.90
22623;DHT22;11478;51.094;7.030;2023-12-20T05:53:06;5.60;99.90
22623;DHT22;11478;51.094;7.030;2023-12-20T05:55:31;5.60;99.90
22623;DHT22;11478;51.094;7.030;2023-12-20T05:57:58;5.60;99.90
22623;DHT22;11478;51.094;7.030;2023-12-20T06:00:23;5.50;99.90
22623;DHT22;11478;51.094;7.030;2023-12-20T06:03:04;5.50;99.90
22623;DHT22;11478;51.094;7.030;2023-12-20T06:05:30;5.50;99.90
22623;DHT22;11478;51.094;7.030;2023-12-20T06:07:57;5.50;99.90
22623;DHT22;11478;51.094;7.030;2023-12-20T06:10:27;5.50;99.90
22623;DHT22;11478;51.094;7.030;2023-12-20T06:12:53;5.50;99.90
22623;DHT22;11478;51.094;7.030;2023-12-20T06:15:21;5.50;99.90
22623;DHT22;11478;51.094;7.030;2023-12-20T06:17:46;5.50;99.90
22623;DHT22;11478;51.094;7.030;2023-12-20T06:20:16;5.50;99.90
22623;DHT22;11478;51.094;7.030;2023-12-20T06:22:42;5.50;99.90
22623;DHT22;11478;51.094;7.030;2023-12-20T06:25:08;5.50;99.90
22623;DHT22;11478;51.094;7.030;2023-12-20T06:27:34;5.50;99.90
22623;DHT22;11478;51.094;7.030;2023-12-20T06:30:01;5.50;99.90
22623;DHT22;11478;51.094;7.030;2023-12-20T06:32:27;5.50;99.90
22623;DHT22;11478;51.094;7.030;2023-12-20T06:34:54;5.60;99.90
22623;DHT22;11478;51.094;7.030;2023-12-20T06:37:20;5.60;99.90
22623;DHT22;11478;51.094;7.030;2023-12-20T06:39:46;5.60;99.90
22623;DHT22;11478;51.094;7.030;2023-12-20T06:42:13;5.60;99.90
22623;DHT22;11478;51.094;7.030;2023-12-20T06:44:38;5.60;99.90
22623;DHT22;11478;51.094;7.030;2023-12-20T06:47:06;5.60;99.90
22623;DHT22;11478;51.094;7.030;2023-12-20T06:49:32;5.60;99.90
22623;DHT22;11478;51.094;7.030;2023-12-20T06:52:01;5.60;99.90
22623;DHT22;11478;51.094;7.030;2023-12-20T06:54:27;5.70;99.90
22623;DHT22;11478;51.094;7.030;2023-12-20T06:56:55;5.70;99.90
22623;DHT22;11478;51.094;7.030;2023-12-20T06:59:21;5.70;99.90
22623;DHT22;11478;51.094;7.030;2023-12-20T07:01:52;5.70;99.90
22623;DHT22;11478;51.094;7.030;2023-12-20T07:04:18;5.80;99.90
22623;DHT22;11478;51.094;7.030;2023-12-20T07:06:51;5.80;99.90
22623;DHT22;11478;51.094;7.030;2023-12-20T07:09:17;5.80;99.90
22623;DHT22;11478;51.094;7.030;2023-12-20T07:11:43;5.80;99.90
22623;DHT22;11478;51.094;7.030;2023-12-20T07:14:09;5.80;99.90
22623;DHT22;11478;51.094;7.030;2023-12-20T07:16:35;5.90;99.90
22623;DHT22;11478;51.094;7.030;2023-12-20T07:19:04;5.90;99.90
22623;DHT22;11478;51.094;7.030;2023-12-20T07:21:30;5.80;99.90
22623;DHT22;11478;51.094;7.030;2023-12-20T07:23:58;5.90;99.90
22623;DHT22;11478;51.094;7.030;2023-12-20T07:26:24;5.90;99.90
22623;DHT22;11478;51.094;7.030;2023-12-20T07:28:50;5.90;99.90
22623;DHT22;11478;51.094;7.030;2023-12-20T07:31:16;5.80;99.90
22623;DHT22;11478;51.094;7.030;2023-12-20T07:33:42;5.90;99.90
22623;DHT22;11478;51.094;7.030;2023-12-20T07:36:08;5.90;99.90
22623;DHT22;11478;51.094;7.030;2023-12-20T07:38:35;5.90;99.90
22623;DHT22;11478;51.094;7.030;2023-12-20T07:41:01;5.90;99.90
22623;DHT22;11478;51.094;7.030;2023-12-20T07:43:27;5.90;99.90
22623;DHT22;11478;51.094;7.030;2023-12-20T07:45:53;5.90;99.90
22623;DHT22;11478;51.094;7.030;2023-12-20T07:48:18;5.90;99.90
22623;DHT22;11478;51.094;7.030;2023-12-20T07:50:44;5.90;99.90
22623;DHT22;11478;51.094;7.030;2023-12-20T07:53:10;5.90;99.90
22623;DHT22;11478;51.094;7.030;2023-12-20T07:55:36;5.90;99.90
22623;DHT22;11478;51.094;7.030;2023-12-20T07:58:03;5.90;99.90
22623;DHT22;11478;51.094;7.030;2023-12-20T08:00:30;5.90;99.90
22623;DHT22;11478;51.094;7.030;2023-12-20T08:02:56;5.90;99.90
22623;DHT22;11478;51.094;7.030;2023-12-20T08:05:22;5.90;99.90
22623;DHT22;11478;51.094;7.030;2023-12-20T08:07:49;5.90;99.90
22623;DHT22;11478;51.094;7.030;2023-12-20T08:10:15;5.90;99.90
22623;DHT22;11478;51.094;7.030;2023-12-20T08:12:41;5.90;99.90
22623;DHT22;11478;51.094;7.030;2023-12-20T08:15:07;5.90;99.90
22623;DHT22;11478;51.094;7.030;2023-12-20T08:17:33;6.00;99.90
22623;DHT22;11478;51.094;7.030;2023-12-20T08:19:59;5.90;99.90
22623;DHT22;11478;51.094;7.030;2023-12-20T08:22:25;5.90;99.90
22623;DHT22;11478;51.094;7.030;2023-12-20T08:24:53;5.90;99.90
22623;DHT22;11478;51.094;7.030;2023-12-20T08:27:19;5.90;99.90
22623;DHT22;11478;51.094;7.030;2023-12-20T08:29:46;5.90;99.90
22623;DHT22;11478;51.094;7.030;2023-12-20T08:32:12;5.90;99.90
22623;DHT22;11478;51.094;7.030;2023-12-20T08:34:38;5.90;99.90
22623;DHT22;11478;51.094;7.030;2023-12-20T08:37:04;5.90;99.90
22623;DHT22;11478;51.094;7.030;2023-12-20T08:39:33;5.90;99.90
22623;DHT22;11478;51.094;7.030;2023-12-20T08:41:59;5.90;99.90
22623;DHT22;11478;51.094;7.030;2023-12-20T08:44:25;5.90;99.90
22623;DHT22;11478;51.094;7.030;2023-12-20T08:46:51;5.90;99.90
22623;DHT22;11478;51.094;7.030;2023-12-20T08:49:17;6.00;99.90
22623;DHT22;11478;51.094;7.030;2023-12-20T08:51:43;6.00;99.90
22623;DHT22;11478;51.094;7.030;2023-12-20T08:54:09;6.00;99.90
22623;DHT22;11478;51.094;7.030;2023-12-20T08:56:35;6.00;99.90
22623;DHT22;11478;51.094;7.030;2023-12-20T08:59:01;5.90;99.90
22623;DHT22;11478;51.094;7.030;2023-12-20T09:01:29;6.00;99.90
22623;DHT22;11478;51.094;7.030;2023-12-20T09:03:55;6.00;99.90
22623;DHT22;11478;51.094;7.030;2023-12-20T09:06:21;6.00;99.90
22623;DHT22;11478;51.094;7.030;2023-12-20T09:08:47;6.00;99.90
22623;DHT22;11478;51.094;7.030;2023-12-20T09:11:13;6.00;99.90
22623;DHT22;11478;51.094;7.030;2023-12-20T09:13:40;6.00;99.90
22623;DHT22;11478;51.094;7.030;2023-12-20T09:16:06;6.00;99.90
22623;DHT22;11478;51.094;7.030;2023-12-20T09:18:35;6.00;99.90
22623;DHT22;11478;51.094;7.030;2023-12-20T09:21:01;6.00;99.90
22623;DHT22;11478;51.094;7.030;2023-12-20T09:23:29;6.00;99.90
22623;DHT22;11478;51.094;7.030;2023-12-20T09:25:55;6.00;99.90
22623;DHT22;11478;51.094;7.030;2023-12-20T09:28:22;6.10;99.90
22623;DHT22;11478;51.094;7.030;2023-12-20T09:30:48;6.10;99.90
22623;DHT22;11478;51.094;7.030;2023-12-20T09:33:14;6.00;99.90
22623;DHT22;11478;51.094;7.030;2023-12-20T09:35:42;6.00;99.90
22623;DHT22;11478;51.094;7.030;2023-12-20T09:38:08;6.10;99.90
22623;DHT22;11478;51.094;7.030;2023-12-20T09:40:35;6.10;99.90
22623;DHT22;11478;51.094;7.030;2023-12-20T09:43:20;6.10;99.90
22623;DHT22;11478;51.094;7.030;2023-12-20T09:45:53;6.10;99.90
22623;DHT22;11478;51.094;7.030;2023-12-20T09:48:21;6.10;99.90
22623;DHT22;11478;51.094;7.030;2023-12-20T09:50:47;6.10;99.90
22623;DHT22;11478;51.094;7.030;2023-12-20T09:53:15;6.10;99.90
22623;DHT22;11478;51.094;7.030;2023-12-20T09:55:42;6.10;99.90
22623;DHT22;11478;51.094;7.030;2023-12-20T09:58:08;6.10;99.90
22623;DHT22;11478;51.094;7.030;2023-12-20T10:00:37;6.10;99.90
22623;DHT22;11478;51.094;7.030;2023-12-20T10:03:03;6.10;99.90
22623;DHT22;11478;51.094;7.030;2023-12-20T10:05:32;6.10;99.90
22623;DHT22;11478;51.094;7.030;2023-12-20T10:08:05;6.10;99.90
22623;DHT22;11478;51.094;7.030;2023-12-20T10:10:31;6.10;99.90
22623;DHT22;11478;51.094;7.030;2023-12-20T10:13:07;6.00;99.90
22623;DHT22;11478;51.094;7.030;2023-12-20T10:15:34;6.00;99.90
22623;DHT22;11478;51.094;7.030;2023-12-20T10:18:12;6.10;99.90
22623;DHT22;11478;51.094;7.030;2023-12-20T10:20:40;6.10;99.90
22623;DHT22;11478;51.094;7.030;2023-12-20T10:23:10;6.10;99.90
22623;DHT22;11478;51.094;7.030;2023-12-20T10:25:36;6.10;99.90
22623;DHT22;11478;51.094;7.030;2023-12-20T10:28:16;6.10;99.90
22623;DHT22;11478;51.094;7.030;2023-12-20T10:30:48;6.10;99.90
22623;DHT22;11478;51.094;7.030;2023-12-20T10:33:32;6.10;99.90
22623;DHT22;11478;51.094;7.030;2023-12-20T10:35:58;6.10;99.90
22623;DHT22;11478;51.094;7.030;2023-12-20T10:38:25;6.10;99.90
22623;DHT22;11478;51.094;7.030;2023-12-20T10:40:55;6.10;99.90
22623;DHT22;11478;51.094;7.030;2023-12-20T10:43:23;6.10;99.90
22623;DHT22;11478;51.094;7.030;2023-12-20T10:45:52;6.10;99.90
22623;DHT22;11478;51.094;7.030;2023-12-20T10:48:26;6.10;99.90
22623;DHT22;11478;51.094;7.030;2023-12-20T10:50:56;6.10;99.90
22623;DHT22;11478;51.094;7.030;2023-12-20T10:53:25;6.20;99.90
22623;DHT22;11478;51.094;7.030;2023-12-20T10:55:53;6.20;99.90
22623;DHT22;11478;51.094;7.030;2023-12-20T10:58:21;6.20;99.90
22623;DHT22;11478;51.094;7.030;2023-12-20T11:00:50;6.20;99.90
22623;DHT22;11478;51.094;7.030;2023-12-20T11:03:18;6.30;99.90
22623;DHT22;11478;51.094;7.030;2023-12-20T11:06:01;6.30;99.90
22623;DHT22;11478;51.094;7.030;2023-12-20T11:08:44;6.30;99.90
22623;DHT22;11478;51.094;7.030;2023-12-20T11:11:32;6.30;99.90
22623;DHT22;11478;51.094;7.030;2023-12-20T11:14:06;6.40;99.90
22623;DHT22;11478;51.094;7.030;2023-12-20T11:16:37;6.40;99.90
22623;DHT22;11478;51.094;7.030;2023-12-20T11:19:13;6.40;99.90
22623;DHT22;11478;51.094;7.030;2023-12-20T11:21:40;6.40;99.90
22623;DHT22;11478;51.094;7.030;2023-12-20T11:24:12;6.40;99.90
22623;DHT22;11478;51.094;7.030;2023-12-20T11:26:38;6.50;99.90
22623;DHT22;11478;51.094;7.030;2023-12-20T11:29:36;6.40;99.90
22623;DHT22;11478;51.094;7.030;2023-12-20T11:32:03;6.40;99.90
22623;DHT22;11478;51.094;7.030;2023-12-20T11:34:36;6.40;99.90
22623;DHT22;11478;51.094;7.030;2023-12-20T11:37:02;6.50;99.90
22623;DHT22;11478;51.094;7.030;2023-12-20T11:39:29;6.40;99.90
22623;DHT22;11478;51.094;7.030;2023-12-20T11:41:56;6.40;99.90
22623;DHT22;11478;51.094;7.030;2023-12-20T11:44:30;6.40;99.90
22623;DHT22;11478;51.094;7.030;2023-12-20T11:46:56;6.40;99.90
22623;DHT22;11478;51.094;7.030;2023-12-20T11:49:32;6.50;99.90
22623;DHT22;11478;51.094;7.030;2023-12-20T11:51:58;6.40;99.90
22623;DHT22;11478;51.094;7.030;2023-12-20T11:54:26;6.50;99.90
22623;DHT22;11478;51.094;7.030;2023-12-20T11:56:52;6.50;99.90
22623;DHT22;11478;51.094;7.030;2023-12-20T11:59:23;6.40;99.90
22623;DHT22;11478;51.094;7.030;2023-12-20T12:01:52;6.40;99.90
22623;DHT22;11478;51.094;7.030;2023-12-20T12:04:21;6.40;99.90
22623;DHT22;11478;51.094;7.030;2023-12-20T12:06:50;6.50;99.90
22623;DHT22;11478;51.094;7.030;2023-12-20T12:09:16;6.40;99.90
22623;DHT22;11478;51.094;7.030;2023-12-20T12:11:55;6.40;99.90
22623;DHT22;11478;51.094;7.030;2023-12-20T12:14:21;6.40;99.90
22623;DHT22;11478;51.094;7.030;2023-12-20T12:16:50;6.40;99.90
22623;DHT22;11478;51.094;7.030;2023-12-20T12:19:21;6.40;99.90
22623;DHT22;11478;51.094;7.030;2023-12-20T12:21:47;6.40;99.90
22623;DHT22;11478;51.094;7.030;2023-12-20T12:24:13;6.50;99.90
22623;DHT22;11478;51.094;7.030;2023-12-20T12:26:52;6.50;99.90
22623;DHT22;11478;51.094;7.030;2023-12-20T12:29:21;6.50;99.90
22623;DHT22;11478;51.094;7.030;2023-12-20T12:31:47;6.60;99.90
22623;DHT22;11478;51.094;7.030;2023-12-20T12:34:14;6.60;99.90
22623;DHT22;11478;51.094;7.030;2023-12-20T12:36:40;6.60;99.90
22623;DHT22;11478;51.094;7.030;2023-12-20T12:39:12;6.70;99.90
22623;DHT22;11478;51.094;7.030;2023-12-20T12:41:41;6.70;99.90
22623;DHT22;11478;51.094;7.030;2023-12-20T12:44:09;6.70;99.90
22623;DHT22;11478;51.094;7.030;2023-12-20T12:46:40;6.70;99.90
22623;DHT22;11478;51.094;7.030;2023-12-20T12:49:07;6.60;99.90
22623;DHT22;11478;51.094;7.030;2023-12-20T12:51:33;6.70;99.90
22623;DHT22;11478;51.094;7.030;2023-12-20T12:53:58;6.70;99.90
22623;DHT22;11478;51.094;7.030;2023-12-20T12:56:24;6.60;99.90
22623;DHT22;11478;51.094;7.030;2023-12-20T12:58:50;6.60;99.90
22623;DHT22;11478;51.094;7.030;2023-12-20T13:01:16;6.60;99.90
22623;DHT22;11478;51.094;7.030;2023-12-20T13:03:42;6.60;99.90
22623;DHT22;11478;51.094;7.030;2023-12-20T13:06:08;6.60;99.90
22623;DHT22;11478;51.094;7.030;2023-12-20T13:08:35;6.60;99.90
22623;DHT22;11478;51.094;7.030;2023-12-20T13:11:01;6.60;99.90
22623;DHT22;11478;51.094;7.030;2023-12-20T13:13:32;6.70;99.90
22623;DHT22;11478;51.094;7.030;2023-12-20T13:15:57;6.70;99.90
22623;DHT22;11478;51.094;7.030;2023-12-20T13:18:24;6.70;99.90
22623;DHT22;11478;51.094;7.030;2023-12-20T13:20:53;6.70;99.90
22623;DHT22;11478;51.094;7.030;2023-12-20T13:23:18;6.60;99.90
22623;DHT22;11478;51.094;7.030;2023-12-20T13:25:47;6.70;99.90
22623;DHT22;11478;51.094;7.030;2023-12-20T13:28:13;6.70;99.90
22623;DHT22;11478;51.094;7.030;2023-12-20T13:30:40;6.60;99.90
22623;DHT22;11478;51.094;7.030;2023-12-20T13:33:06;6.60;99.90
22623;DHT22;11478;51.094;7.030;2023-12-20T13:35:42;6.60;99.90
22623;DHT22;11478;51.094;7.030;2023-12-20T13:38:08;6.60;99.90
22623;DHT22;11478;51.094;7.030;2023-12-20T13:40:34;6.60;99.90
22623;DHT22;11478;51.094;7.030;2023-12-20T13:42:59;6.60;99.90
22623;DHT22;11478;51.094;7.030;2023-12-20T13:45:26;6.60;99.90
22623;DHT22;11478;51.094;7.030;2023-12-20T13:47:52;6.60;99.90
22623;DHT22;11478;51.094;7.030;2023-12-20T13:50:23;6.60;99.90
22623;DHT22;11478;51.094;7.030;2023-12-20T13:52:49;6.60;99.90
22623;DHT22;11478;51.094;7.030;2023-12-20T13:55:15;6.70;99.90
22623;DHT22;11478;51.094;7.030;2023-12-20T13:57:40;6.60;99.90
22623;DHT22;11478;51.094;7.030;2023-12-20T14:00:08;6.60;99.90
22623;DHT22;11478;51.094;7.030;2023-12-20T14:02:43;6.60;99.90
22623;DHT22;11478;51.094;7.030;2023-12-20T14:05:09;6.60;99.90
22623;DHT22;11478;51.094;7.030;2023-12-20T14:07:36;6.70;99.90
22623;DHT22;11478;51.094;7.030;2023-12-20T14:10:02;6.60;99.90
22623;DHT22;11478;51.094;7.030;2023-12-20T14:12:31;6.60;99.90
22623;DHT22;11478;51.094;7.030;2023-12-20T14:15:12;6.60;99.90
22623;DHT22;11478;51.094;7.030;2023-12-20T14:18:07;6.60;99.90
22623;DHT22;11478;51.094;7.030;2023-12-20T14:20:38;6.70;99.90
22623;DHT22;11478;51.094;7.030;2023-12-20T14:23:05;6.70;99.90
22623;DHT22;11478;51.094;7.030;2023-12-20T14:25:31;6.60;99.90
22623;DHT22;11478;51.094;7.030;2023-12-20T14:27:57;6.60;99.90
22623;DHT22;11478;51.094;7.030;2023-12-20T14:30:26;6.70;99.90
22623;DHT22;11478;51.094;7.030;2023-12-20T14:33:01;6.70;99.90
22623;DHT22;11478;51.094;7.030;2023-12-20T14:35:27;6.70;99.90
22623;DHT22;11478;51.094;7.030;2023-12-20T14:38:00;6.70;99.90
22623;DHT22;11478;51.094;7.030;2023-12-20T14:40:26;6.70;99.90
22623;DHT22;11478;51.094;7.030;2023-12-20T14:42:55;6.70;99.90
22623;DHT22;11478;51.094;7.030;2023-12-20T14:45:25;6.70;99.90
22623;DHT22;11478;51.094;7.030;2023-12-20T14:47:56;6.70;99.90
22623;DHT22;11478;51.094;7.030;2023-12-20T14:50:22;6.80;99.90
22623;DHT22;11478;51.094;7.030;2023-12-20T14:52:51;6.80;99.90
22623;DHT22;11478;51.094;7.030;2023-12-20T14:55:19;6.80;99.90
22623;DHT22;11478;51.094;7.030;2023-12-20T14:57:47;6.80;99.90
22623;DHT22;11478;51.094;7.030;2023-12-20T15:00:15;6.80;99.90
22623;DHT22;11478;51.094;7.030;2023-12-20T15:02:48;6.80;99.90
22623;DHT22;11478;51.094;7.030;2023-12-20T15:05:14;6.90;99.90
22623;DHT22;11478;51.094;7.030;2023-12-20T15:07:44;6.90;99.90
22623;DHT22;11478;51.094;7.030;2023-12-20T15:10:10;6.90;99.90
22623;DHT22;11478;51.094;7.030;2023-12-20T15:12:35;6.90;99.90
22623;DHT22;11478;51.094;7.030;2023-12-20T15:15:01;6.90;99.90
22623;DHT22;11478;51.094;7.030;2023-12-20T15:17:28;6.90;99.90
22623;DHT22;11478;51.094;7.030;2023-12-20T15:19:56;7.00;99.90
22623;DHT22;11478;51.094;7.030;2023-12-20T15:22:22;7.00;99.90
22623;DHT22;11478;51.094;7.030;2023-12-20T15:24:52;7.00;99.90
22623;DHT22;11478;51.094;7.030;2023-12-20T15:27:20;7.00;99.90
22623;DHT22;11478;51.094;7.030;2023-12-20T15:29:45;7.00;99.90
22623;DHT22;11478;51.094;7.030;2023-12-20T15:32:11;7.00;99.90
22623;DHT22;11478;51.094;7.030;2023-12-20T15:34:44;7.10;99.90
22623;DHT22;11478;51.094;7.030;2023-12-20T15:37:11;7.10;99.90
22623;DHT22;11478;51.094;7.030;2023-12-20T15:39:37;7.10;99.90
22623;DHT22;11478;51.094;7.030;2023-12-20T15:42:03;7.10;99.90
22623;DHT22;11478;51.094;7.030;2023-12-20T15:44:30;7.10;99.90
22623;DHT22;11478;51.094;7.030;2023-12-20T15:46:56;7.10;99.90
22623;DHT22;11478;51.094;7.030;2023-12-20T15:49:28;7.10;99.90